createdAt,value
2022-09-12T00:00:50.629Z,99022.00
2022-09-12T00:03:58.257Z,99028.97
2022-09-12T00:07:00.471Z,99031.63
2022-09-12T00:10:02.706Z,99026.28
2022-09-12T00:13:04.870Z,99024.66
2022-09-12T00:16:07.497Z,99025.84
2022-09-12T00:19:10.422Z,99026.31
2022-09-12T00:22:12.634Z,99024.69
2022-09-12T00:25:14.854Z,99024.44
2022-09-12T00:28:17.963Z,99018.19
2022-09-12T00:31:24.144Z,99030.97
2022-09-12T00:34:26.509Z,99026.56
2022-09-12T00:37:28.713Z,99033.28
2022-09-12T00:40:30.847Z,99025.03
2022-09-12T00:43:37.554Z,99028.97
2022-09-12T00:46:44.423Z,99023.19
2022-09-12T00:49:46.545Z,99024.69
2022-09-12T00:53:17.988Z,99036.31
2022-09-12T00:56:20.448Z,99026.31
2022-09-12T00:59:26.682Z,99027.34
2022-09-12T01:02:29.085Z,99030.47
2022-09-12T01:05:32.119Z,99032.56
2022-09-12T01:08:37.400Z,99034.06
2022-09-12T01:11:40.507Z,99038.00
2022-09-12T01:14:42.971Z,99040.47
2022-09-12T01:18:08.842Z,99033.66
2022-09-12T01:22:02.241Z,99037.84
2022-09-12T01:25:28.965Z,99037.84
2022-09-12T01:29:06.423Z,99023.53
2022-09-12T01:32:30.550Z,99036.66
2022-09-12T01:35:41.758Z,99034.22
2022-09-12T01:38:50.417Z,99030.78
2022-09-12T01:42:01.431Z,99029.47
2022-09-12T01:45:33.999Z,99023.84
2022-09-12T01:48:40.927Z,99023.09
2022-09-12T01:51:53.957Z,99019.25
2022-09-12T01:55:03.715Z,99013.88
2022-09-12T01:58:08.347Z,99016.66
2022-09-12T02:01:15.661Z,99017.44
2022-09-12T02:04:34.081Z,99015.22
2022-09-12T02:07:47.114Z,99014.78
2022-09-12T02:11:07.633Z,99021.03
2022-09-12T02:14:18.785Z,99015.91
2022-09-12T02:17:23.111Z,99009.56
2022-09-12T02:20:47.362Z,99015.34
2022-09-12T02:23:57.227Z,99015.72
2022-09-12T02:27:07.412Z,99014.50
2022-09-12T02:30:10.857Z,99013.25
2022-09-12T02:33:26.722Z,99006.22
2022-09-12T02:36:34.550Z,99013.31
2022-09-12T02:39:37.085Z,99015.03
2022-09-12T02:42:39.309Z,99017.16
2022-09-12T02:45:41.648Z,99018.78
2022-09-12T02:48:43.907Z,99013.25
2022-09-12T02:51:46.756Z,99020.41
2022-09-12T02:54:49.331Z,99016.72
2022-09-12T02:57:51.523Z,99024.94
2022-09-12T03:01:06.315Z,99020.44
2022-09-12T03:04:14.597Z,99025.78
2022-09-12T03:07:40.284Z,99028.44
2022-09-12T03:11:07.339Z,99028.44
2022-09-12T03:14:32.380Z,99027.97
2022-09-12T03:18:06.370Z,99030.72
2022-09-12T03:21:11.488Z,99026.50
2022-09-12T03:24:20.992Z,99036.28
2022-09-12T03:27:39.609Z,99039.53
2022-09-12T03:30:44.209Z,99041.53
2022-09-12T03:33:46.503Z,99041.31
2022-09-12T03:36:49.027Z,99031.47
2022-09-12T03:39:51.238Z,99038.50
2022-09-12T03:42:53.799Z,99028.72
2022-09-12T03:45:55.985Z,99034.94
2022-09-12T03:48:58.264Z,99032.87
2022-09-12T03:52:00.435Z,99039.91
2022-09-12T03:55:02.690Z,99040.13
2022-09-12T03:58:04.897Z,99037.31
2022-09-12T04:01:17.261Z,99037.56
2022-09-12T04:04:19.562Z,99040.81
2022-09-12T04:07:21.807Z,99045.41
2022-09-12T04:10:23.968Z,99042.66
2022-09-12T04:13:26.140Z,99036.50
2022-09-12T04:16:28.405Z,99035.41
2022-09-12T04:19:30.614Z,99044.44
2022-09-12T04:22:33.367Z,99040.06
2022-09-12T04:25:35.543Z,99049.53
2022-09-12T04:28:38.800Z,99045.44
2022-09-12T04:31:41.311Z,99048.06
2022-09-12T04:34:43.489Z,99047.91
2022-09-12T04:37:45.667Z,99041.03
2022-09-12T04:40:47.881Z,99036.28
2022-09-12T04:44:04.266Z,99038.50
2022-09-12T04:47:06.432Z,99042.97
2022-09-12T04:50:08.927Z,99048.28
2022-09-12T04:53:11.382Z,99045.56
2022-09-12T04:56:13.603Z,99046.94
2022-09-12T04:59:17.420Z,99044.97
2022-09-12T05:02:19.772Z,99041.63
2022-09-12T05:05:22.038Z,99045.09
2022-09-12T05:08:24.180Z,99048.13
2022-09-12T05:11:46.853Z,99047.59
2022-09-12T05:14:50.897Z,99049.72
2022-09-12T05:17:53.065Z,99049.47
2022-09-12T05:20:55.590Z,99053.50
2022-09-12T05:24:01.757Z,99049.75
2022-09-12T05:27:04.858Z,99059.19
2022-09-12T05:30:07.811Z,99056.84
2022-09-12T05:33:10.123Z,99061.94
2022-09-12T05:36:15.012Z,99067.78
2022-09-12T05:39:18.551Z,99070.66
2022-09-12T05:42:20.718Z,99077.47
2022-09-12T05:45:22.883Z,99085.34
2022-09-12T05:48:25.099Z,99083.31
2022-09-12T05:51:29.025Z,99091.59
2022-09-12T05:54:31.800Z,99080.41
2022-09-12T05:57:34.098Z,99079.00
2022-09-12T06:00:36.245Z,99080.94
2022-09-12T06:03:47.470Z,99085.13
2022-09-12T06:06:50.245Z,99085.41
2022-09-12T06:09:52.397Z,99086.59
2022-09-12T06:12:54.538Z,99087.16
2022-09-12T06:16:12.521Z,99076.34
2022-09-12T06:19:17.435Z,99090.56
2022-09-12T06:22:19.987Z,99091.84
2022-09-12T06:25:22.296Z,99088.88
2022-09-12T06:28:24.888Z,99087.56
2022-09-12T06:31:35.647Z,99087.09
2022-09-12T06:34:37.906Z,99086.72
2022-09-12T06:37:40.745Z,99098.66
2022-09-12T06:40:44.634Z,99093.78
2022-09-12T06:43:46.799Z,99097.44
2022-09-12T06:46:49.298Z,99102.69
2022-09-12T06:49:51.515Z,99092.41
2022-09-12T06:52:54.012Z,99098.56
2022-09-12T06:56:01.383Z,99101.66
2022-09-12T06:59:03.617Z,99101.78
2022-09-12T07:02:06.488Z,99107.94
2022-09-12T07:05:09.207Z,99108.59
2022-09-12T07:08:11.386Z,99104.84
2022-09-12T07:11:17.787Z,99095.00
2022-09-12T07:14:20.036Z,99107.09
2022-09-12T07:17:22.213Z,99103.38
2022-09-12T07:20:24.351Z,99112.94
2022-09-12T07:23:26.476Z,99110.41
2022-09-12T07:26:29.614Z,99112.84
2022-09-12T07:29:36.878Z,99118.28
2022-09-12T07:32:40.055Z,99118.19
2022-09-12T07:35:42.268Z,99126.94
2022-09-12T07:38:44.698Z,99124.97
2022-09-12T07:41:46.882Z,99122.28
2022-09-12T07:44:49.096Z,99117.47
2022-09-12T07:47:54.253Z,99117.13
2022-09-12T07:51:00.776Z,99127.41
2022-09-12T07:54:03.665Z,99130.69
2022-09-12T07:57:05.965Z,99127.31
2022-09-12T08:00:08.829Z,99121.38
2022-09-12T08:03:10.976Z,99109.59
2022-09-12T08:06:21.187Z,99113.06
2022-09-12T08:09:23.353Z,99119.34
2022-09-12T08:12:25.527Z,99124.06
2022-09-12T08:15:27.738Z,99111.78
2022-09-12T08:18:30.937Z,99128.59
2022-09-12T08:21:34.175Z,99120.91
2022-09-12T08:24:36.360Z,99121.88
2022-09-12T08:27:39.172Z,99128.03
2022-09-12T08:30:41.423Z,99126.94
2022-09-12T08:33:43.833Z,99123.00
2022-09-12T08:36:46.255Z,99118.41
2022-09-12T08:39:48.487Z,99114.72
2022-09-12T08:43:14.164Z,99125.37
2022-09-12T08:46:23.564Z,99116.63
2022-09-12T08:49:31.159Z,99117.59
2022-09-12T08:52:44.295Z,99114.19
2022-09-12T08:55:53.810Z,99117.13
2022-09-12T08:58:55.970Z,99114.47
2022-09-12T09:01:59.284Z,99117.59
2022-09-12T09:05:23.250Z,99108.59
2022-09-12T09:08:35.519Z,99127.75
2022-09-12T09:11:54.536Z,99107.81
2022-09-12T09:15:05.352Z,99121.47
2022-09-12T09:18:38.241Z,99122.63
2022-09-12T09:21:50.882Z,99109.09
2022-09-12T09:24:58.049Z,99116.06
2022-09-12T09:28:05.093Z,99114.47
2022-09-12T09:31:39.865Z,99114.63
2022-09-12T09:34:42.680Z,99118.94
2022-09-12T09:38:15.390Z,99117.50
2022-09-12T09:41:41.848Z,99114.38
2022-09-12T09:44:47.205Z,99113.03
2022-09-12T09:47:52.721Z,99108.97
2022-09-12T09:50:58.062Z,99112.72
2022-09-12T09:54:24.720Z,99124.09
2022-09-12T09:57:36.218Z,99113.25
2022-09-12T10:00:39.060Z,99114.06
2022-09-12T10:03:48.381Z,99111.34
2022-09-12T10:06:56.618Z,99115.06
2022-09-12T10:10:19.317Z,99105.91
2022-09-12T10:13:30.100Z,99108.91
2022-09-12T10:16:34.722Z,99100.34
2022-09-12T10:19:40.025Z,99104.06
2022-09-12T10:22:47.307Z,99102.94
2022-09-12T10:26:00.783Z,99100.44
2022-09-12T10:29:09.790Z,99107.19
2022-09-12T10:32:13.076Z,99109.06
2022-09-12T10:35:30.598Z,99101.72
2022-09-12T10:38:33.177Z,99104.72
2022-09-12T10:41:38.258Z,99101.22
2022-09-12T10:44:53.111Z,99103.94
2022-09-12T10:47:58.925Z,99097.91
2022-09-12T10:51:02.591Z,99093.00
2022-09-12T10:54:07.948Z,99094.78
2022-09-12T10:57:22.298Z,99093.72
2022-09-12T11:00:27.992Z,99087.94
2022-09-12T11:03:48.217Z,99085.00
2022-09-12T11:07:06.526Z,99097.38
2022-09-12T11:10:38.145Z,99087.00
2022-09-12T11:13:59.147Z,99077.19
2022-09-12T11:17:34.153Z,99075.12
2022-09-12T11:20:48.434Z,99067.25
2022-09-12T11:24:08.720Z,99066.59
2022-09-12T11:27:29.554Z,99070.19
2022-09-12T11:30:41.515Z,99075.47
2022-09-12T11:33:45.765Z,99073.84
2022-09-12T11:37:11.010Z,99086.44
2022-09-12T11:41:06.556Z,99092.78
2022-09-12T11:44:11.386Z,99094.53
2022-09-12T11:47:14.086Z,99094.75
2022-09-12T11:50:23.440Z,99104.56
2022-09-12T11:53:34.134Z,99111.09
2022-09-12T11:56:42.425Z,99110.56
2022-09-12T12:00:04.243Z,99107.81
2022-09-12T12:03:09.156Z,99102.16
2022-09-12T12:06:14.024Z,99103.06
2022-09-12T12:09:16.342Z,99110.41
2022-09-12T12:12:25.039Z,99102.28
2022-09-12T12:15:28.412Z,99105.91
2022-09-12T12:18:32.687Z,99100.88
2022-09-12T12:21:41.262Z,99097.38
2022-09-12T12:25:06.496Z,99094.50
2022-09-12T12:28:09.144Z,99092.06
2022-09-12T12:31:11.457Z,99083.88
2022-09-12T12:34:27.470Z,99072.88
2022-09-12T12:37:32.317Z,99057.41
2022-09-12T12:40:34.458Z,99062.66
2022-09-12T12:43:36.724Z,99053.09
2022-09-12T12:46:38.982Z,99057.41
2022-09-12T12:49:41.257Z,99061.41
2022-09-12T12:53:06.652Z,99068.41
2022-09-12T12:56:26.780Z,99055.25
2022-09-12T12:59:29.450Z,99052.34
2022-09-12T13:02:38.267Z,99043.72
2022-09-12T13:05:43.985Z,99038.25
2022-09-12T13:08:57.151Z,99042.59
2022-09-12T13:12:04.409Z,99037.41
2022-09-12T13:15:35.572Z,99050.91
2022-09-12T13:18:44.723Z,99040.31
2022-09-12T13:22:07.605Z,99048.47
2022-09-12T13:25:21.577Z,99042.75
2022-09-12T13:28:29.052Z,99050.06
2022-09-12T13:31:31.367Z,99033.50
2022-09-12T13:34:35.743Z,99022.50
2022-09-12T13:38:02.920Z,99033.13
2022-09-12T13:41:23.873Z,99035.19
2022-09-12T13:44:26.894Z,99045.81
2022-09-12T13:47:36.162Z,99040.19
2022-09-12T13:50:53.689Z,99029.97
2022-09-12T13:53:58.196Z,99035.59
2022-09-12T13:57:00.374Z,99031.84
2022-09-12T14:00:06.754Z,99027.50
2022-09-12T14:03:54.742Z,99025.09
2022-09-12T14:07:27.981Z,99027.75
2022-09-12T14:10:35.362Z,99026.41
2022-09-12T14:13:41.643Z,99030.47
2022-09-12T14:16:43.912Z,99027.47
2022-09-12T14:19:46.643Z,99028.25
2022-09-12T14:22:52.908Z,99017.75
2022-09-12T14:25:57.056Z,99013.50
2022-09-12T14:28:59.535Z,99013.81
2022-09-12T14:32:03.798Z,99013.22
2022-09-12T14:35:14.037Z,99018.63
2022-09-12T14:38:16.156Z,99022.66
2022-09-12T14:41:27.976Z,99026.47
2022-09-12T14:44:31.195Z,99022.94
2022-09-12T14:47:39.326Z,99019.19
2022-09-12T14:50:41.745Z,99025.37
2022-09-12T14:53:48.975Z,99015.94
2022-09-12T14:56:58.587Z,99012.69
2022-09-12T15:00:28.010Z,99018.09
2022-09-12T15:03:34.790Z,99019.16
2022-09-12T15:06:39.019Z,99015.41
2022-09-12T15:09:46.437Z,99008.66
2022-09-12T15:12:49.558Z,99010.81
2022-09-12T15:15:54.361Z,99012.97
2022-09-12T15:18:56.825Z,99010.81
2022-09-12T15:21:59.141Z,99006.78
2022-09-12T15:25:01.293Z,99013.50
2022-09-12T15:28:13.926Z,99007.59
2022-09-12T15:31:36.314Z,99007.59
2022-09-12T15:34:38.485Z,99016.75
2022-09-12T15:37:40.709Z,99005.72
2022-09-12T15:40:42.887Z,99016.22
2022-09-12T15:43:46.053Z,99011.06
2022-09-12T15:46:48.328Z,99018.31
2022-09-12T15:49:50.633Z,99014.81
2022-09-12T15:52:52.856Z,99009.97
2022-09-12T15:55:55.067Z,99017.00
2022-09-12T15:58:59.834Z,99011.28
2022-09-12T16:02:02.687Z,99009.94
2022-09-12T16:05:06.183Z,99008.59
2022-09-12T16:08:09.548Z,99017.22
2022-09-12T16:11:23.035Z,99015.81
2022-09-12T16:14:25.330Z,99023.63
2022-09-12T16:17:27.525Z,99023.63
2022-09-12T16:20:29.739Z,99017.97
2022-09-12T16:23:32.236Z,99020.13
2022-09-12T16:26:34.458Z,99022.53
2022-09-12T16:29:36.776Z,99027.91
2022-09-12T16:32:39.119Z,99025.47
2022-09-12T16:35:42.157Z,99012.19
2022-09-12T16:38:52.339Z,99022.69
2022-09-12T16:41:54.523Z,99025.06
2022-09-12T16:44:56.904Z,99021.28
2022-09-12T16:47:59.110Z,99027.75
2022-09-12T16:51:04.111Z,99018.50
2022-09-12T16:54:06.294Z,99027.06
2022-09-12T16:57:08.459Z,99018.87
2022-09-12T17:00:11.279Z,99020.59
2022-09-12T17:03:13.808Z,99020.25
2022-09-12T17:06:18.137Z,99027.59
2022-09-12T17:09:21.444Z,99023.59
2022-09-12T17:12:24.113Z,99020.78
2022-09-12T17:15:26.313Z,99019.25
2022-09-12T17:18:28.492Z,99024.84
2022-09-12T17:21:31.279Z,99026.66
2022-09-12T17:24:33.612Z,99033.19
2022-09-12T17:27:36.072Z,99027.19
2022-09-12T17:30:38.291Z,99038.38
2022-09-12T17:33:41.133Z,99034.16
2022-09-12T17:36:44.696Z,99038.91
2022-09-12T17:39:47.000Z,99048.03
2022-09-12T17:42:49.237Z,99053.25
2022-09-12T17:45:56.661Z,99054.81
2022-09-12T17:49:00.999Z,99057.75
2022-09-12T17:52:03.317Z,99061.97
2022-09-12T17:55:05.835Z,99067.66
2022-09-12T17:58:07.997Z,99069.44
2022-09-12T18:01:31.525Z,99066.16
2022-09-12T18:04:33.799Z,99065.59
2022-09-12T18:07:38.929Z,99066.75
2022-09-12T18:10:43.096Z,99075.03
2022-09-12T18:13:45.260Z,99071.44
2022-09-12T18:16:48.061Z,99076.09
2022-09-12T18:19:54.013Z,99088.25
2022-09-12T18:22:56.391Z,99082.25
2022-09-12T18:25:59.900Z,99086.50
2022-09-12T18:29:02.164Z,99086.09
2022-09-12T18:32:04.483Z,99083.50
2022-09-12T18:35:07.302Z,99084.31
2022-09-12T18:38:09.600Z,99085.44
2022-09-12T18:41:15.874Z,99090.47
2022-09-12T18:44:18.260Z,99088.22
2022-09-12T18:47:20.856Z,99090.06
2022-09-12T18:50:24.641Z,99089.56
2022-09-12T18:53:26.842Z,99087.56
2022-09-12T18:56:34.495Z,99087.37
2022-09-12T18:59:36.716Z,99089.91
2022-09-12T19:02:39.491Z,99083.16
2022-09-12T19:05:42.788Z,99087.63
2022-09-12T19:08:45.683Z,99096.72
2022-09-12T19:11:52.604Z,99100.03
2022-09-12T19:14:54.830Z,99107.16
2022-09-12T19:17:57.020Z,99108.56
2022-09-12T19:20:59.380Z,99103.66
2022-09-12T19:24:06.952Z,99105.66
2022-09-12T19:27:09.362Z,99112.62
2022-09-12T19:30:11.949Z,99101.94
2022-09-12T19:33:14.172Z,99112.38
2022-09-12T19:36:41.286Z,99104.72
2022-09-12T19:39:44.352Z,99108.72
2022-09-12T19:42:47.050Z,99108.87
2022-09-12T19:45:49.707Z,99117.25
2022-09-12T19:48:55.454Z,99104.75
2022-09-12T19:51:57.685Z,99103.44
2022-09-12T19:54:59.861Z,99103.44
2022-09-12T19:58:02.766Z,99094.81
2022-09-12T20:01:13.696Z,99105.47
2022-09-12T20:04:15.890Z,99098.06
2022-09-12T20:07:18.108Z,99102.22
2022-09-12T20:10:20.419Z,99099.91
2022-09-12T20:13:22.603Z,99095.03
2022-09-12T20:16:29.187Z,99092.63
2022-09-12T20:19:31.991Z,99089.84
2022-09-12T20:22:38.045Z,99092.00
2022-09-12T20:25:42.295Z,99091.84
2022-09-12T20:28:44.479Z,99094.31
2022-09-12T20:31:46.763Z,99090.97
2022-09-12T20:34:48.990Z,99089.59
2022-09-12T20:37:51.193Z,99099.66
2022-09-12T20:40:53.524Z,99095.72
2022-09-12T20:43:56.570Z,99097.19
2022-09-12T20:46:59.485Z,99103.13
2022-09-12T20:50:01.740Z,99107.16
2022-09-12T20:53:05.273Z,99109.06
2022-09-12T20:56:07.691Z,99115.22
2022-09-12T20:59:13.183Z,99123.31
2022-09-12T21:02:15.986Z,99124.19
2022-09-12T21:05:18.350Z,99125.63
2022-09-12T21:08:20.520Z,99120.59
2022-09-12T21:11:22.676Z,99124.13
2022-09-12T21:14:24.917Z,99124.44
2022-09-12T21:17:27.143Z,99125.03
2022-09-12T21:20:29.298Z,99128.97
2022-09-12T21:23:32.152Z,99134.34
2022-09-12T21:26:34.484Z,99132.13
2022-09-12T21:29:36.653Z,99137.97
2022-09-12T21:32:39.022Z,99139.87
2022-09-12T21:35:41.221Z,99140.75
2022-09-12T21:38:43.828Z,99135.25
2022-09-12T21:41:46.030Z,99134.63
2022-09-12T21:44:48.227Z,99142.03
2022-09-12T21:47:50.571Z,99146.97
2022-09-12T21:50:52.839Z,99150.81
2022-09-12T21:53:54.996Z,99156.78
2022-09-12T21:56:57.146Z,99167.00
2022-09-12T21:59:59.504Z,99164.56
2022-09-12T22:03:01.812Z,99162.97
2022-09-12T22:06:05.580Z,99158.50
2022-09-12T22:09:07.767Z,99159.69
2022-09-12T22:12:09.942Z,99163.16
2022-09-12T22:15:36.472Z,99163.53
2022-09-12T22:18:38.229Z,99165.63
2022-09-12T22:22:00.395Z,99167.47
2022-09-12T22:25:02.568Z,99166.88
2022-09-12T22:28:04.741Z,99172.19
2022-09-12T22:31:10.509Z,99168.94
2022-09-12T22:34:12.703Z,99164.81
2022-09-12T22:37:14.911Z,99167.66
2022-09-12T22:40:17.155Z,99161.31
2022-09-12T22:43:19.339Z,99162.97
2022-09-12T22:46:21.557Z,99166.09
2022-09-12T22:49:23.892Z,99165.06
2022-09-12T22:52:26.509Z,99157.91
2022-09-12T22:55:28.749Z,99162.03
2022-09-12T22:58:32.144Z,99152.00
2022-09-12T23:01:35.523Z,99154.87
2022-09-12T23:04:37.866Z,99146.87
2022-09-12T23:07:40.060Z,99150.97
2022-09-12T23:10:43.992Z,99155.87
2022-09-12T23:13:47.435Z,99148.13
2022-09-12T23:16:49.648Z,99149.34
2022-09-12T23:19:52.418Z,99153.22
2022-09-12T23:22:54.879Z,99149.94
2022-09-12T23:26:13.600Z,99154.66
2022-09-12T23:29:15.810Z,99150.38
2022-09-12T23:32:19.668Z,99153.00
2022-09-12T23:35:21.844Z,99142.19
2022-09-12T23:38:23.991Z,99143.81
2022-09-12T23:41:26.171Z,99143.81
2022-09-12T23:44:28.352Z,99146.47
2022-09-12T23:47:30.484Z,99147.69
2022-09-12T23:50:32.625Z,99149.97
2022-09-12T23:53:35.870Z,99149.53
2022-09-12T23:56:38.026Z,99152.38
2022-09-12T23:59:40.193Z,99154.00
